Time;durP1;ratioP1;P1;durP2;ratioP2;P2;SDS_P1;SDS_P2;PMS_P1;PMS_P2;Temp;Humidity;BMP_temperature;BMP_pressure;BME280_temperature;BME280_humidity;BME280_pressure;Samples;Min_cycle;Max_cycle;Signal;HPM_P1;HPM_P2
2021/12/19 00:01:20;;;;;;;2.20;1.80;;;;;;;7.68;72.04;101012.16;4977590;28;97506;-85
2021/12/19 00:09:00;;;;;;;2.78;1.90;;;;;;;7.61;72.57;100992.19;4980335;28;97079;-85
2021/12/19 00:11:26;;;;;;;2.78;1.90;;;;;;;7.63;73.10;100979.13;4963992;28;97776;-85
2021/12/19 00:13:53;;;;;;;3.00;1.83;;;;;;;7.37;72.51;100928.03;4971617;28;100123;-87
2021/12/19 00:16:19;;;;;;;4.38;2.45;;;;;;;7.47;72.53;100928.78;4960121;28;96871;-85
2021/12/19 00:18:47;;;;;;;2.55;1.80;;;;;;;7.53;72.62;100946.13;4966065;28;96936;-86
2021/12/19 00:21:15;;;;;;;2.58;1.85;;;;;;;7.46;72.83;100945.34;4972585;28;101570;-85
2021/12/19 00:23:41;;;;;;;2.95;2.13;;;;;;;7.61;72.70;100950.38;4950121;28;101479;-85
2021/12/19 00:26:08;;;;;;;2.15;1.77;;;;;;;7.64;72.89;100950.34;4973342;28;96742;-85
2021/12/19 00:28:33;;;;;;;2.03;1.80;;;;;;;7.63;72.33;100946.00;4961290;28;98026;-85
2021/12/19 00:30:59;;;;;;;3.42;2.20;;;;;;;7.60;72.70;100945.19;4972464;28;101026;-86
2021/12/19 00:33:25;;;;;;;2.75;1.80;;;;;;;7.43;73.14;100912.28;4974519;28;101378;-86
2021/12/19 00:35:51;;;;;;;2.63;2.10;;;;;;;7.64;72.83;100939.88;4976921;28;96885;-84
2021/12/19 00:38:16;;;;;;;3.50;1.52;;;;;;;7.62;73.15;100932.94;4965352;28;97071;-85
2021/12/19 00:40:42;;;;;;;3.05;1.70;;;;;;;7.63;73.12;100932.94;4988662;28;101176;-84
2021/12/19 00:43:11;;;;;;;3.53;2.00;;;;;;;7.62;72.76;100920.78;4984900;28;97752;-85
2021/12/19 00:45:40;;;;;;;5.18;2.50;;;;;;;7.48;73.18;100897.41;4976139;28;97018;-84
2021/12/19 00:48:07;;;;;;;3.65;2.20;;;;;;;7.62;72.97;100914.66;4974589;28;97192;-85
2021/12/19 00:50:35;;;;;;;3.05;1.92;;;;;;;7.63;72.93;100911.19;4969002;28;101050;-84
2021/12/19 00:53:00;;;;;;;2.85;2.20;;;;;;;7.61;73.01;100910.31;4989919;28;98078;-86
2021/12/19 00:55:27;;;;;;;3.38;2.30;;;;;;;7.64;73.77;100911.16;4972054;28;96773;-85
2021/12/19 00:57:53;;;;;;;3.72;2.25;;;;;;;7.49;73.17;100885.22;4984991;28;97083;-86
2021/12/19 01:00:21;;;;;;;4.75;2.05;;;;;;;7.64;73.19;100910.28;4957546;28;101484;-86
2021/12/19 01:02:50;;;;;;;3.30;2.30;;;;;;;7.69;73.03;100905.88;4971517;28;98124;-85
2021/12/19 01:05:15;;;;;;;3.08;2.38;;;;;;;7.61;73.01;100895.50;4970619;28;96984;-85
2021/12/19 01:07:41;;;;;;;4.28;2.55;;;;;;;7.68;72.79;100891.94;4959418;28;98129;-84
2021/12/19 01:10:08;;;;;;;4.00;2.67;;;;;;;7.68;73.09;100889.34;4971969;28;101321;-85
2021/12/19 01:12:36;;;;;;;4.53;2.30;;;;;;;7.74;73.02;100895.34;4969965;28;101044;-84
2021/12/19 01:15:04;;;;;;;4.70;3.05;;;;;;;7.76;73.31;100885.75;4962471;28;97065;-85
2021/12/19 01:17:30;;;;;;;4.80;2.67;;;;;;;7.66;72.95;100859.72;4959369;28;96845;-84
2021/12/19 01:19:56;;;;;;;3.50;2.42;;;;;;;7.59;73.04;100842.44;4962312;28;98072;-86
2021/12/19 01:22:21;;;;;;;5.38;2.70;;;;;;;7.77;73.16;100872.66;4964537;28;98038;-85
2021/12/19 01:24:47;;;;;;;4.57;2.47;;;;;;;7.78;73.14;100861.31;5006558;28;96889;-85
2021/12/19 01:27:13;;;;;;;3.70;2.33;;;;;;;7.77;73.63;100856.13;4975260;28;97066;-85
2021/12/19 01:29:38;;;;;;;7.18;2.72;;;;;;;7.59;73.52;100828.47;4990897;28;97955;-85
2021/12/19 01:32:04;;;;;;;3.97;2.83;;;;;;;7.63;73.47;100833.66;4975643;28;101327;-85
2021/12/19 01:34:30;;;;;;;5.28;2.55;;;;;;;7.75;73.41;100843.06;4946401;28;96828;-85
2021/12/19 01:36:56;;;;;;;5.22;2.72;;;;;;;7.76;73.32;100836.94;4990250;28;96712;-87
2021/12/19 01:39:21;;;;;;;3.95;2.67;;;;;;;7.78;73.56;100835.19;4951553;28;101843;-85
2021/12/19 01:41:52;;;;;;;3.70;2.58;;;;;;;7.75;73.46;100844.81;4949114;28;101309;-84
2021/12/19 01:44:18;;;;;;;5.53;3.10;;;;;;;7.78;73.63;100829.09;4959055;28;97022;-85
2021/12/19 01:46:46;;;;;;;6.57;2.75;;;;;;;7.78;73.38;100816.03;4959571;28;97681;-85
2021/12/19 01:49:13;;;;;;;4.80;2.60;;;;;;;7.80;73.44;100830.81;4972597;28;98192;-85
2021/12/19 01:51:38;;;;;;;5.88;3.15;;;;;;;7.63;73.04;100802.28;4984694;28;100357;-85
2021/12/19 01:54:05;;;;;;;4.43;2.90;;;;;;;7.70;73.56;100818.75;4973605;28;97395;-85
2021/12/19 01:56:31;;;;;;;6.07;2.70;;;;;;;7.67;73.00;100814.41;4962414;28;96969;-84
2021/12/19 01:58:57;;;;;;;3.38;2.40;;;;;;;7.83;72.96;100828.13;4974844;28;101085;-85
2021/12/19 02:01:23;;;;;;;6.72;2.60;;;;;;;7.82;73.09;100815.94;4974847;28;98045;-85
2021/12/19 02:03:49;;;;;;;5.40;2.95;;;;;;;7.84;72.95;100802.88;4962303;28;97116;-84
2021/12/19 02:06:15;;;;;;;5.80;3.05;;;;;;;7.80;72.83;100795.97;4985959;28;96825;-86
2021/12/19 02:08:41;;;;;;;5.38;2.75;;;;;;;7.83;73.12;100802.00;4968600;28;101923;-85
2021/12/19 02:11:07;;;;;;;4.85;3.25;;;;;;;7.69;72.65;100781.28;4964237;28;100687;-85
2021/12/19 02:13:33;;;;;;;3.00;2.70;;;;;;;7.79;72.83;100773.31;4974634;28;96909;-84
2021/12/19 02:15:59;;;;;;;5.18;2.85;;;;;;;7.92;72.91;100795.78;4956515;28;97280;-84
2021/12/19 02:18:25;;;;;;;5.32;2.88;;;;;;;7.89;72.79;100783.59;4972137;28;98747;-86
2021/12/19 02:20:54;;;;;;;5.18;3.10;;;;;;;7.89;73.15;100778.38;4968499;28;101763;-84
2021/12/19 02:23:22;;;;;;;4.45;3.05;;;;;;;7.83;72.57;100751.50;4961348;28;97258;-85
2021/12/19 02:25:48;;;;;;;4.95;2.72;;;;;;;7.90;72.56;100760.94;4980118;28;96773;-86
2021/12/19 02:28:13;;;;;;;5.65;3.13;;;;;;;7.88;72.89;100747.03;4960392;28;101188;-85
2021/12/19 02:30:39;;;;;;;4.30;2.70;;;;;;;7.84;72.38;100727.91;4966809;28;101683;-85
2021/12/19 02:33:10;;;;;;;6.43;3.03;;;;;;;7.85;72.96;100727.06;4990775;28;98170;-85
2021/12/19 02:35:36;;;;;;;6.10;3.00;;;;;;;7.82;72.61;100718.38;4958758;28;96808;-85
2021/12/19 02:48:29;;;;;;;4.75;2.95;;;;;;;7.82;72.76;100681.78;4980920;28;98455;-86
2021/12/19 02:50:55;;;;;;;4.88;2.92;;;;;;;7.79;72.55;100680.09;4973934;28;101656;-85
2021/12/19 02:53:35;;;;;;;4.32;3.50;;;;;;;7.82;72.89;100674.81;4974855;28;96656;-85
2021/12/19 02:56:03;;;;;;;5.00;2.83;;;;;;;7.79;72.96;100672.25;4957678;28;97071;-85
2021/12/19 02:58:30;;;;;;;5.05;3.83;;;;;;;7.70;72.37;100656.72;4971396;28;100955;-84
2021/12/19 03:00:56;;;;;;;8.68;4.72;;;;;;;7.87;72.43;100685.19;4990717;28;97866;-85
2021/12/19 03:03:22;;;;;;;6.20;4.03;;;;;;;7.85;72.01;100658.22;4978773;28;96791;-84
2021/12/19 03:05:48;;;;;;;6.30;3.80;;;;;;;7.75;72.15;100638.38;4988602;28;97261;-85
2021/12/19 03:08:13;;;;;;;5.40;3.97;;;;;;;7.89;72.21;100654.66;4974118;28;100956;-85
2021/12/19 03:11:16;;;;;;;8.27;4.18;;;;;;;7.95;71.92;100657.16;4980085;28;97889;-86
2021/12/19 03:17:55;;;;;;;6.95;4.13;;;;;;;7.87;72.18;100641.63;4980126;28;96839;-84
2021/12/19 03:19:01;;;;;;;13.07;5.50;;;;;;;7.92;71.76;100655.47;4979581;28;101245;-85
2021/12/19 03:21:26;;;;;;;10.55;4.95;;;;;;;7.93;71.90;100644.09;4954600;28;101357;-85
2021/12/19 03:23:52;;;;;;;9.40;4.68;;;;;;;7.88;71.13;100634.63;4968877;28;96973;-86
2021/12/19 03:26:18;;;;;;;8.18;4.53;;;;;;;7.94;71.68;100626.66;4964836;28;96915;-85
2021/12/19 03:28:45;;;;;;;11.57;4.90;;;;;;;7.94;71.28;100635.41;4985711;28;100738;-85
2021/12/19 03:31:10;;;;;;;10.57;4.32;;;;;;;7.92;71.19;100631.94;4943902;28;100479;-84
2021/12/19 03:33:38;;;;;;;8.80;4.38;;;;;;;7.91;71.29;100632.84;4958297;28;97018;-85
2021/12/19 03:36:07;;;;;;;10.23;4.15;;;;;;;7.95;70.42;100620.56;4984548;28;98343;-85
2021/12/19 03:38:38;;;;;;;7.47;4.50;;;;;;;7.72;70.44;100584.41;4967561;28;101571;-85
2021/12/19 03:43:39;;;;;;;9.85;3.53;;;;;;;7.90;70.45;100602.34;4987060;28;97062;-85
2021/12/19 03:46:05;;;;;;;10.45;3.47;;;;;;;7.90;70.30;100596.25;4977338;28;97024;-85
2021/12/19 03:48:31;;;;;;;11.05;3.55;;;;;;;8.02;69.67;100603.00;4993226;28;101569;-86
2021/12/19 03:50:58;;;;;;;9.05;3.30;;;;;;;7.98;69.41;100596.13;4962799;28;99920;-85
2021/12/19 03:53:23;;;;;;;6.93;3.00;;;;;;;7.94;69.05;100580.50;4953716;28;96865;-85
2021/12/19 03:55:50;;;;;;;8.88;3.67;;;;;;;7.97;69.12;100592.66;4963497;28;97089;-85
2021/12/19 03:58:17;;;;;;;8.43;2.88;;;;;;;7.96;68.53;100601.38;4969488;28;101270;-84
2021/12/19 04:00:43;;;;;;;10.18;3.10;;;;;;;7.93;68.68;100584.00;4964052;28;101071;-84
2021/12/19 04:03:10;;;;;;;7.72;3.00;;;;;;;7.94;68.40;100588.34;4957148;28;96871;-85
2021/12/19 04:05:38;;;;;;;6.22;3.00;;;;;;;7.96;68.62;100583.06;4983745;28;97160;-85
2021/12/19 04:08:04;;;;;;;8.80;3.10;;;;;;;7.97;68.56;100587.44;4977085;28;98638;-85
2021/12/19 04:10:30;;;;;;;8.90;2.78;;;;;;;8.02;68.70;100579.47;4976307;28;101488;-85
2021/12/19 04:12:56;;;;;;;7.53;2.88;;;;;;;8.02;68.67;100571.63;4973871;28;97346;-85
2021/12/19 04:15:22;;;;;;;10.90;3.83;;;;;;;7.66;68.07;100527.88;4960595;28;97012;-84
2021/12/19 04:17:48;;;;;;;7.80;2.92;;;;;;;7.96;68.67;100562.16;4976306;28;98359;-85
2021/12/19 04:20:15;;;;;;;8.00;2.80;;;;;;;7.98;68.66;100559.53;4993638;28;98223;-84
2021/12/19 04:22:45;;;;;;;8.27;3.00;;;;;;;8.01;68.26;100572.53;4950503;28;97143;-85
2021/12/19 04:25:11;;;;;;;9.77;3.60;;;;;;;7.99;68.39;100562.09;4972790;28;96780;-85
2021/12/19 04:27:37;;;;;;;6.05;2.47;;;;;;;7.97;68.09;100552.56;4986951;28;101019;-85
2021/12/19 04:30:05;;;;;;;11.35;3.67;;;;;;;7.98;68.14;100560.38;4968202;28;101406;-85
2021/12/19 04:32:36;;;;;;;10.43;2.67;;;;;;;7.94;67.84;100554.38;4972291;28;96748;-84
2021/12/19 04:35:01;;;;;;;15.05;4.57;;;;;;;7.82;67.89;100540.66;4976411;28;96879;-85
2021/12/19 04:39:59;;;;;;;8.63;2.83;;;;;;;7.94;67.79;100556.97;4964565;28;100785;-85
2021/12/19 04:43:48;;;;;;;8.95;2.72;;;;;;;8.02;67.86;100561.19;4955700;28;97301;-85
2021/12/19 04:56:52;;;;;;;8.50;2.35;;;;;;;7.96;67.97;100541.25;4985628;28;97011;-85
2021/12/19 05:14:30;;;;;;;7.88;3.03;;;;;;;7.98;67.56;100538.63;4992345;28;97200;-85
2021/12/19 05:17:02;;;;;;;10.02;2.63;;;;;;;8.00;67.33;100550.78;4972277;28;97186;-84
2021/12/19 05:19:34;;;;;;;7.70;2.70;;;;;;;7.90;67.53;100534.38;4993671;28;98042;-85
2021/12/19 05:22:02;;;;;;;15.25;2.85;;;;;;;8.07;67.51;100561.97;4973700;28;101203;-84
2021/12/19 05:27:04;;;;;;;6.65;2.75;;;;;;;8.05;67.40;100558.50;4966561;28;96925;-86
2021/12/19 05:29:31;;;;;;;9.77;2.55;;;;;;;8.06;67.69;100550.66;4960595;28;100451;-85
2021/12/19 05:31:57;;;;;;;6.85;2.28;;;;;;;8.08;67.26;100550.59;4975505;28;97957;-85
2021/12/19 05:34:23;;;;;;;6.03;2.45;;;;;;;8.09;67.01;100554.94;4978851;28;96918;-85
2021/12/19 05:47:44;;;;;;;8.50;2.83;;;;;;;8.10;66.58;100554.06;4972622;28;97283;-83
2021/12/19 05:50:09;;;;;;;14.85;3.08;;;;;;;8.09;66.49;100531.41;4970794;28;101823;-85
2021/12/19 05:52:36;;;;;;;5.00;2.40;;;;;;;8.06;66.71;100534.09;4985599;28;97782;-85
2021/12/19 05:55:02;;;;;;;5.47;2.08;;;;;;;7.95;66.27;100500.31;4965280;28;97203;-85
2021/12/19 05:57:28;;;;;;;9.35;2.60;;;;;;;8.14;66.13;100530.44;4982418;28;98240;-86
2021/12/19 05:59:54;;;;;;;7.57;2.20;;;;;;;8.12;66.40;100531.34;4988271;28;98539;-85
2021/12/19 06:02:19;;;;;;;6.20;2.75;;;;;;;8.12;66.62;100521.75;4982833;28;100919;-85
2021/12/19 06:04:45;;;;;;;7.07;2.75;;;;;;;8.08;66.65;100514.00;4988417;28;96859;-85
2021/12/19 06:07:11;;;;;;;6.63;2.22;;;;;;;8.16;66.26;100533.00;4963748;28;96882;-85
2021/12/19 06:09:36;;;;;;;9.52;2.80;;;;;;;8.04;66.53;100513.19;4985560;28;98459;-84
2021/12/19 06:12:02;;;;;;;5.70;2.40;;;;;;;8.10;66.64;100514.84;4951747;28;101091;-84
2021/12/19 06:14:32;;;;;;;7.75;2.42;;;;;;;8.01;66.67;100497.59;4954497;28;97100;-86
2021/12/19 06:16:59;;;;;;;11.10;2.72;;;;;;;8.13;66.95;100510.38;4950792;28;96926;-87
2021/12/19 06:19:25;;;;;;;9.20;2.75;;;;;;;8.12;66.99;100511.28;4985300;28;98044;-85
2021/12/19 06:21:51;;;;;;;5.85;2.50;;;;;;;7.99;67.12;100493.28;4959721;28;98106;-85
2021/12/19 06:24:17;;;;;;;7.75;2.75;;;;;;;8.12;67.43;100523.50;5002992;28;96742;-85
2021/12/19 06:26:42;;;;;;;9.18;2.70;;;;;;;8.12;67.08;100524.38;4966314;28;97167;-85
2021/12/19 06:29:08;;;;;;;9.00;2.50;;;;;;;7.99;67.14;100501.97;4961102;28;101767;-85
2021/12/19 06:31:33;;;;;;;6.25;2.75;;;;;;;8.08;67.30;100525.31;4967259;28;101651;-86
2021/12/19 06:33:59;;;;;;;6.45;2.67;;;;;;;8.11;67.59;100535.69;4968825;28;96859;-85
2021/12/19 06:36:25;;;;;;;8.35;3.45;;;;;;;8.20;67.13;100536.41;4961667;28;96850;-86
2021/12/19 06:38:50;;;;;;;5.93;2.25;;;;;;;8.07;66.94;100527.97;4973534;28;101584;-86
2021/12/19 06:41:16;;;;;;;5.90;2.80;;;;;;;8.20;66.97;100537.25;4984649;28;97341;-85
2021/12/19 06:43:41;;;;;;;4.03;2.75;;;;;;;8.06;67.63;100503.59;4961925;28;96833;-85
2021/12/19 06:46:08;;;;;;;6.28;2.50;;;;;;;8.14;68.06;100512.13;5001777;28;97279;-85
2021/12/19 06:48:33;;;;;;;6.72;2.60;;;;;;;8.12;67.41;100506.06;4973371;28;97387;-86
2021/12/19 06:50:59;;;;;;;6.00;2.50;;;;;;;8.08;67.66;100498.31;4972047;28;101039;-84
2021/12/19 06:53:25;;;;;;;4.93;2.25;;;;;;;8.14;67.34;100514.75;4973306;28;96657;-85
2021/12/19 06:55:51;;;;;;;4.63;2.30;;;;;;;8.08;67.62;100499.16;4986276;28;96957;-85
2021/12/19 06:58:16;;;;;;;6.30;2.50;;;;;;;7.96;67.48;100481.13;4963371;28;100856;-85
2021/12/19 07:00:42;;;;;;;8.80;2.30;;;;;;;8.10;67.17;100496.53;4965136;28;101741;-85
2021/12/19 07:03:10;;;;;;;4.30;2.10;;;;;;;8.06;67.67;100494.88;4960558;28;97010;-84
2021/12/19 07:05:37;;;;;;;5.15;2.60;;;;;;;8.06;67.53;100503.59;4983546;28;97406;-86
2021/12/19 07:08:02;;;;;;;5.43;2.13;;;;;;;8.11;67.42;100516.53;4987535;28;97986;-84
2021/12/19 07:10:28;;;;;;;5.90;1.90;;;;;;;8.11;67.16;100513.94;4963859;28;101310;-84
2021/12/19 07:12:54;;;;;;;6.15;2.25;;;;;;;8.14;67.33;100519.09;4954144;28;96714;-84
2021/12/19 07:15:19;;;;;;;5.20;1.80;;;;;;;8.18;67.40;100510.31;4971767;28;97002;-85
2021/12/19 07:17:45;;;;;;;7.30;2.42;;;;;;;8.08;67.39;100493.06;4971658;28;97328;-81
2021/12/19 07:20:11;;;;;;;8.88;2.60;;;;;;;8.16;67.76;100512.09;4970347;28;101694;-86
2021/12/19 07:22:37;;;;;;;5.38;2.65;;;;;;;8.16;67.73;100507.72;4957125;28;97188;-85
2021/12/19 07:25:03;;;;;;;6.15;1.92;;;;;;;7.98;67.78;100476.72;4976482;28;97214;-85
2021/12/19 07:27:29;;;;;;;7.30;2.40;;;;;;;8.18;67.71;100501.59;4953822;28;100199;-86
2021/12/19 07:29:57;;;;;;;7.70;2.38;;;;;;;8.06;67.73;100471.34;4973298;28;101643;-85
2021/12/19 07:32:22;;;;;;;9.30;3.08;;;;;;;8.18;67.73;100488.53;4969316;28;97362;-86
2021/12/19 07:34:49;;;;;;;6.20;2.22;;;;;;;8.12;67.67;100481.69;4972151;28;96982;-84
2021/12/19 07:37:15;;;;;;;5.13;2.08;;;;;;;8.09;67.71;100481.75;4957507;28;99873;-86
2021/12/19 07:39:52;;;;;;;6.53;2.15;;;;;;;8.16;67.58;100488.56;4956684;28;101563;-85
2021/12/19 07:42:18;;;;;;;6.25;2.85;;;;;;;8.21;67.94;100480.63;4970981;28;96712;-82
2021/12/19 07:44:44;;;;;;;6.72;2.80;;;;;;;8.12;68.07;100466.00;4965633;28;97457;-83
2021/12/19 07:47:10;;;;;;;8.15;2.92;;;;;;;8.13;68.23;100465.94;4970561;28;101227;-83
2021/12/19 07:49:36;;;;;;;8.15;2.97;;;;;;;8.11;68.40;100459.88;4959868;28;100819;-84
2021/12/19 07:52:02;;;;;;;8.23;3.63;;;;;;;8.10;68.29;100447.69;4954661;28;97104;-82
2021/12/19 07:54:28;;;;;;;8.35;3.30;;;;;;;8.09;68.42;100466.91;4989643;28;97162;-84
2021/12/19 07:56:54;;;;;;;5.53;2.90;;;;;;;8.11;68.30;100469.47;4957385;28;101695;-81
2021/12/19 07:59:19;;;;;;;8.70;3.15;;;;;;;8.13;68.59;100476.41;4965876;28;101227;-80
2021/12/19 08:01:45;;;;;;;8.80;3.40;;;;;;;8.16;68.40;100473.72;4963968;28;96682;-81
2021/12/19 08:04:10;;;;;;;7.70;2.92;;;;;;;8.15;68.63;100472.00;4986142;28;97606;-81
2021/12/19 08:06:36;;;;;;;8.18;3.47;;;;;;;8.17;68.45;100474.56;4985322;28;100738;-82
2021/12/19 08:09:09;;;;;;;5.63;3.00;;;;;;;8.17;68.26;100471.97;4957280;28;101076;-83
2021/12/19 08:11:40;;;;;;;6.75;2.72;;;;;;;8.19;68.20;100475.41;4974927;28;97207;-83
2021/12/19 08:14:11;;;;;;;5.68;3.22;;;;;;;8.12;68.54;100468.59;4961723;28;96790;-81
2021/12/19 08:16:37;;;;;;;8.15;2.92;;;;;;;8.09;68.42;100456.47;4954034;28;101951;-84
2021/12/19 08:19:04;;;;;;;5.00;2.78;;;;;;;7.87;68.93;100426.44;4957433;28;101596;-80
2021/12/19 08:21:29;;;;;;;6.55;2.90;;;;;;;8.10;68.77;100466.00;4969623;28;96877;-80
2021/12/19 08:24:00;;;;;;;6.88;2.88;;;;;;;8.16;68.97;100460.63;4983417;28;97018;-79
2021/12/19 08:26:26;;;;;;;8.52;2.70;;;;;;;8.06;69.10;100451.28;4972380;28;101245;-75
2021/12/19 08:28:52;;;;;;;4.90;2.63;;;;;;;8.16;69.03;100471.09;4979312;28;98366;-73
2021/12/19 08:31:18;;;;;;;6.55;2.80;;;;;;;8.18;69.26;100478.06;4976614;28;97212;-73
2021/12/19 08:33:44;;;;;;;5.93;2.88;;;;;;;8.15;69.32;100468.53;4967402;28;97050;-73
2021/12/19 08:36:09;;;;;;;5.22;2.40;;;;;;;8.14;69.71;100461.56;4951799;28;100866;-72
2021/12/19 08:38:35;;;;;;;4.88;2.22;;;;;;;8.15;69.34;100463.31;4995368;28;97400;-74
2021/12/19 08:41:01;;;;;;;6.57;2.60;;;;;;;8.16;69.21;100459.78;4972485;28;97309;-74
2021/12/19 08:43:26;;;;;;;6.68;3.00;;;;;;;8.13;68.99;100450.25;4976158;28;96783;-72
2021/12/19 08:45:52;;;;;;;6.70;2.80;;;;;;;8.14;69.23;100454.59;4977313;28;100894;-72
2021/12/19 08:48:18;;;;;;;5.47;2.70;;;;;;;8.17;68.91;100461.50;4974815;28;99497;-71
2021/12/19 08:50:47;;;;;;;7.63;2.75;;;;;;;8.16;68.93;100459.78;4957034;28;96872;-72
2021/12/19 08:53:13;;;;;;;5.57;2.47;;;;;;;8.15;69.03;100452.84;4980033;28;97360;-71
2021/12/19 08:55:39;;;;;;;3.33;2.05;;;;;;;8.16;69.32;100465.00;4983704;28;97850;-76
2021/12/19 08:58:05;;;;;;;7.82;3.20;;;;;;;8.17;69.01;100453.66;4955607;28;98201;-73
2021/12/19 09:00:33;;;;;;;7.65;3.50;;;;;;;8.20;68.65;100458.81;4963246;28;97872;-73
2021/12/19 09:02:59;;;;;;;7.40;3.13;;;;;;;8.16;68.88;100439.72;4970896;28;97306;-73
2021/12/19 09:05:27;;;;;;;5.07;2.13;;;;;;;8.18;69.20;100449.31;4984378;28;97424;-74
2021/12/19 09:07:53;;;;;;;7.28;2.40;;;;;;;8.09;69.03;100438.16;4977829;28;98569;-73
2021/12/19 09:10:20;;;;;;;4.97;2.40;;;;;;;8.16;69.01;100446.72;4990474;28;96800;-72
2021/12/19 09:12:46;;;;;;;5.07;2.17;;;;;;;8.05;69.32;100420.78;4973988;28;96942;-75
2021/12/19 09:15:12;;;;;;;4.28;2.97;;;;;;;8.16;69.70;100441.47;4972196;28;97693;-72
2021/12/19 09:17:37;;;;;;;7.38;2.80;;;;;;;8.07;69.15;100421.63;4986232;28;97192;-72
2021/12/19 09:20:05;;;;;;;3.50;2.13;;;;;;;8.16;69.57;100450.19;4964759;28;103026;-72
2021/12/19 09:22:31;;;;;;;4.05;2.17;;;;;;;8.18;69.64;100444.06;4984563;28;96813;-72
2021/12/19 09:24:57;;;;;;;4.55;2.15;;;;;;;8.18;69.26;100454.53;4971339;28;97671;-72
2021/12/19 09:27:22;;;;;;;4.55;1.90;;;;;;;8.20;69.55;100455.34;4982127;28;98905;-86
2021/12/19 09:29:48;;;;;;;6.15;2.33;;;;;;;8.20;68.78;100445.72;4982415;28;96800;-87
2021/12/19 09:32:14;;;;;;;3.10;2.28;;;;;;;8.22;68.72;100451.81;4984847;28;97259;-87
2021/12/19 09:34:39;;;;;;;4.30;2.50;;;;;;;8.10;68.66;100425.94;5001608;28;101441;-88
2021/12/19 09:37:05;;;;;;;5.38;2.80;;;;;;;8.20;68.68;100437.88;4970457;28;101835;-87
2021/12/19 09:39:32;;;;;;;5.53;2.30;;;;;;;8.16;68.43;100437.09;4983836;28;98080;-87
2021/12/19 09:42:01;;;;;;;4.22;2.15;;;;;;;8.05;68.96;100423.41;4979741;28;97372;-87
2021/12/19 09:44:27;;;;;;;4.35;2.00;;;;;;;8.13;68.69;100439.78;4987325;28;98046;-87
2021/12/19 09:46:53;;;;;;;3.40;1.65;;;;;;;8.03;68.81;100419.09;4977398;28;99017;-87
2021/12/19 09:49:20;;;;;;;4.47;2.50;;;;;;;8.12;69.35;100434.63;4984606;28;97868;-87
2021/12/19 09:51:47;;;;;;;3.45;1.80;;;;;;;8.12;69.61;100440.69;4988834;28;97373;-88
2021/12/19 09:54:14;;;;;;;4.68;2.25;;;;;;;8.11;69.35;100419.78;4949764;28;100117;-86
2021/12/19 09:56:42;;;;;;;1.80;1.50;;;;;;;8.18;68.87;100434.47;4971988;28;100539;-87
2021/12/19 09:59:19;;;;;;;4.18;2.05;;;;;;;8.02;69.04;100399.94;4965145;28;97478;-86
2021/12/19 10:01:46;;;;;;;3.47;2.20;;;;;;;8.05;69.36;100401.63;4976797;28;97030;-86
2021/12/19 10:04:29;;;;;;;4.03;2.08;;;;;;;8.15;69.03;100418.84;4972908;28;101172;-73
2021/12/19 10:07:22;;;;;;;3.35;2.10;;;;;;;8.04;68.87;100392.94;4969833;28;101363;-73
2021/12/19 10:10:00;;;;;;;5.80;2.40;;;;;;;8.16;69.02;100421.41;4965891;28;96824;-73
2021/12/19 10:12:48;;;;;;;3.50;2.17;;;;;;;8.14;69.34;100412.78;4980671;28;97514;-72
2021/12/19 10:15:20;;;;;;;5.25;2.55;;;;;;;8.06;69.47;100392.91;4967195;28;101405;-75
2021/12/19 10:17:47;;;;;;;3.72;2.50;;;;;;;8.08;69.52;100394.56;4987966;28;98293;-74
2021/12/19 10:20:16;;;;;;;3.90;2.53;;;;;;;8.14;69.86;100406.66;4992371;28;97138;-74
2021/12/19 10:22:44;;;;;;;4.22;2.58;;;;;;;7.97;70.08;100382.63;4986517;28;97618;-74
2021/12/19 10:25:22;;;;;;;3.75;3.20;;;;;;;8.13;70.34;100392.72;4964403;28;97431;-87
2021/12/19 10:27:52;;;;;;;4.72;2.60;;;;;;;8.13;70.48;100387.50;5005775;28;102286;-87
2021/12/19 10:30:24;;;;;;;4.65;2.35;;;;;;;8.18;70.50;100370.88;4969998;28;97238;-88
2021/12/19 10:32:57;;;;;;;5.60;2.45;;;;;;;8.17;70.60;100369.97;4969338;28;97551;-87
2021/12/19 10:35:33;;;;;;;3.38;1.90;;;;;;;8.17;70.46;100359.50;4987971;28;100394;-88
2021/12/19 10:38:01;;;;;;;4.15;2.30;;;;;;;8.18;69.88;100356.03;4988326;28;101249;-88
2021/12/19 10:40:27;;;;;;;4.13;2.42;;;;;;;8.20;69.74;100356.81;4985033;28;96826;-87
2021/12/19 10:43:01;;;;;;;4.03;1.98;;;;;;;8.21;69.50;100353.34;4973060;28;97674;-87
2021/12/19 10:45:46;;;;;;;2.08;1.67;;;;;;;8.22;69.29;100347.19;4970565;28;101775;-91
2021/12/19 10:48:34;;;;;;;6.22;1.70;;;;;;;8.22;69.28;100349.81;4973654;28;99865;-86
2021/12/19 10:51:07;;;;;;;4.57;1.80;;;;;;;8.00;69.60;100312.88;4987939;28;96716;-87
2021/12/19 10:53:38;;;;;;;4.40;1.63;;;;;;;8.16;69.49;100337.75;4970104;28;96964;-87
2021/12/19 10:56:11;;;;;;;4.30;1.95;;;;;;;8.22;69.30;100334.13;4987882;28;98661;-84
2021/12/19 10:58:47;;;;;;;2.85;1.90;;;;;;;8.20;69.43;100330.69;4966481;28;98457;-90
2021/12/19 11:01:18;;;;;;;6.20;3.00;;;;;;;8.20;69.46;100324.59;4969628;28;97389;-88
2021/12/19 11:03:44;;;;;;;6.85;2.95;;;;;;;8.19;69.36;100342.03;4966885;28;96982;-88
2021/12/19 11:06:17;;;;;;;7.53;3.47;;;;;;;8.16;69.79;100321.19;5001590;28;98622;-89
2021/12/19 11:08:43;;;;;;;5.63;3.00;;;;;;;8.18;69.54;100324.66;4983961;28;98042;-87
2021/12/19 11:11:10;;;;;;;4.55;2.35;;;;;;;8.20;69.61;100321.97;4954314;28;97358;-86
2021/12/19 11:13:35;;;;;;;3.83;2.58;;;;;;;8.06;69.29;100299.66;4987004;28;96857;-86
2021/12/19 11:16:02;;;;;;;4.68;2.03;;;;;;;8.20;69.08;100317.59;4945335;28;101223;-84
2021/12/19 11:18:28;;;;;;;4.55;1.67;;;;;;;8.21;69.26;100308.88;4969504;28;101392;-84
2021/12/19 11:20:53;;;;;;;4.30;2.05;;;;;;;8.15;68.82;100290.72;4985062;28;97138;-87
2021/12/19 11:23:19;;;;;;;2.85;1.63;;;;;;;8.26;68.71;100306.13;4981473;28;97156;-87
2021/12/19 11:25:45;;;;;;;4.47;1.80;;;;;;;8.28;68.21;100292.13;4988133;28;101614;-88
2021/12/19 11:28:11;;;;;;;5.03;1.77;;;;;;;8.26;68.62;100283.47;4971373;28;100055;-88
2021/12/19 11:30:36;;;;;;;3.70;1.48;;;;;;;8.14;68.14;100248.03;4975359;28;96955;-88
2021/12/19 11:33:05;;;;;;;4.22;1.48;;;;;;;8.24;68.16;100280.03;4989491;28;96970;-88
2021/12/19 11:35:36;;;;;;;3.00;2.00;;;;;;;8.25;67.68;100273.03;4966383;28;101149;-86
2021/12/19 11:38:06;;;;;;;1.98;1.20;;;;;;;8.19;67.47;100242.69;4965696;28;100719;-88
2021/12/19 11:40:35;;;;;;;2.47;1.25;;;;;;;8.24;67.51;100253.03;4980278;28;96642;-87
2021/12/19 11:43:03;;;;;;;2.38;1.10;;;;;;;8.29;67.58;100257.25;4973303;28;96821;-85
2021/12/19 11:45:33;;;;;;;2.55;1.20;;;;;;;8.28;67.33;100270.34;4976502;28;97814;-88
2021/12/19 11:48:07;;;;;;;2.65;1.50;;;;;;;8.30;67.16;100264.19;4981523;28;98394;-89
2021/12/19 11:50:36;;;;;;;3.15;1.70;;;;;;;8.27;67.29;100260.78;4962812;28;97478;-88
2021/12/19 11:53:08;;;;;;;3.22;1.80;;;;;;;8.28;67.88;100263.34;4964024;28;97165;-89
2021/12/19 11:55:38;;;;;;;4.18;1.75;;;;;;;8.29;67.77;100258.97;4997552;28;100829;-89
2021/12/19 11:58:07;;;;;;;4.68;2.17;;;;;;;8.27;68.07;100252.94;4979668;28;101831;-90
2021/12/19 12:00:47;;;;;;;3.58;1.60;;;;;;;8.27;67.52;100237.25;4995941;28;97037;-89
2021/12/19 12:03:12;;;;;;;2.92;1.63;;;;;;;8.30;67.29;100237.19;4966994;28;97197;-90
2021/12/19 12:05:46;;;;;;;6.15;2.08;;;;;;;8.24;66.96;100221.66;4973158;28;101076;-89
2021/12/19 12:08:20;;;;;;;3.13;1.67;;;;;;;8.21;66.67;100208.66;4974392;28;101395;-90
2021/12/19 12:10:49;;;;;;;3.17;1.65;;;;;;;8.28;66.65;100205.81;4979215;28;96764;-83
2021/12/19 12:13:33;;;;;;;2.50;1.38;;;;;;;8.21;65.64;100178.13;4993108;28;96799;-82
2021/12/19 12:19:07;;;;;;;2.10;1.40;;;;;;;8.20;65.89;100186.84;4984387;28;97849;-85
2021/12/19 12:24:06;;;;;;;3.27;1.50;;;;;;;8.31;66.39;100194.44;4992617;28;97181;-84
2021/12/19 12:27:03;;;;;;;3.08;1.67;;;;;;;8.28;66.75;100186.66;4958454;28;97237;-84
2021/12/19 12:29:29;;;;;;;4.07;2.67;;;;;;;8.26;67.16;100185.84;4977796;28;97511;-80
2021/12/19 12:31:55;;;;;;;4.63;2.40;;;;;;;8.20;67.54;100170.31;4964033;28;98135;-82
2021/12/19 12:34:21;;;;;;;3.80;2.15;;;;;;;8.10;67.71;100156.63;4964218;28;97182;-81
2021/12/19 12:36:47;;;;;;;3.88;1.67;;;;;;;8.11;67.36;100155.72;4973039;28;101440;-81
2021/12/19 12:39:23;;;;;;;6.65;2.33;;;;;;;8.08;67.52;100151.44;4986478;28;101112;-81
2021/12/19 12:42:00;;;;;;;8.27;4.10;;;;;;;8.28;66.71;100178.81;4952017;28;96703;-82
2021/12/19 12:44:26;;;;;;;5.93;2.97;;;;;;;8.18;66.72;100159.06;4957140;28;97012;-89